createdAt,value
2022-11-12T00:01:44.072Z,20.53
2022-11-12T00:04:30.906Z,22.77
2022-11-12T00:07:18.700Z,21.73
2022-11-12T00:10:06.313Z,18.37
2022-11-12T00:12:53.515Z,17.30
2022-11-12T00:15:40.159Z,20.03
2022-11-12T00:18:27.025Z,20.97
2022-11-12T00:21:13.925Z,18.23
2022-11-12T00:24:02.084Z,22.53
2022-11-12T00:26:48.447Z,19.03
2022-11-12T00:29:34.945Z,16.27
2022-11-12T00:32:21.511Z,15.37
2022-11-12T00:35:13.479Z,15.83
2022-11-12T00:38:01.251Z,19.03
2022-11-12T00:40:48.943Z,19.33
2022-11-12T00:43:35.604Z,23.20
2022-11-12T00:46:22.268Z,19.43
2022-11-12T00:49:09.155Z,21.33
2022-11-12T00:51:55.599Z,20.43
2022-11-12T00:54:41.983Z,18.07
2022-11-12T00:57:29.736Z,15.50
2022-11-12T01:00:17.716Z,15.47
2022-11-12T01:03:04.502Z,23.20
2022-11-12T01:05:50.996Z,17.47
2022-11-12T01:08:37.644Z,16.20
2022-11-12T01:11:26.142Z,17.40
2022-11-12T01:14:13.889Z,20.37
2022-11-12T01:17:00.331Z,18.47
2022-11-12T01:19:46.845Z,15.27
2022-11-12T01:22:33.241Z,17.63
2022-11-12T01:25:19.774Z,18.83
2022-11-12T01:28:06.552Z,22.83
2022-11-12T01:30:54.408Z,17.23
2022-11-12T01:33:40.916Z,20.90
2022-11-12T01:36:28.822Z,20.77
2022-11-12T01:39:15.472Z,22.43
2022-11-12T01:42:01.953Z,21.77
2022-11-12T01:44:48.567Z,18.63
2022-11-12T01:47:36.662Z,21.40
2022-11-12T01:50:27.646Z,22.13
2022-11-12T01:53:14.843Z,20.23
2022-11-12T01:56:02.937Z,21.10
2022-11-12T01:58:53.551Z,21.70
2022-11-12T02:01:40.499Z,22.87
2022-11-12T02:04:29.002Z,19.23
2022-11-12T02:07:16.354Z,24.97
2022-11-12T02:10:04.667Z,21.90
2022-11-12T02:13:11.860Z,24.00
2022-11-12T02:15:59.235Z,18.63
2022-11-12T02:18:45.825Z,26.97
2022-11-12T02:21:33.969Z,21.50
2022-11-12T02:24:34.005Z,22.20
2022-11-12T02:27:20.915Z,22.13
2022-11-12T02:30:08.490Z,22.30
2022-11-12T02:32:55.181Z,22.57
2022-11-12T02:35:41.880Z,23.47
2022-11-12T02:38:30.084Z,23.27
2022-11-12T02:41:17.208Z,23.87
2022-11-12T02:44:03.969Z,22.10
2022-11-12T02:46:50.556Z,21.73
2022-11-12T02:49:37.098Z,23.33
2022-11-12T02:52:23.442Z,26.33
2022-11-12T02:55:13.090Z,23.93
2022-11-12T02:58:00.085Z,22.10
2022-11-12T03:00:46.730Z,21.73
2022-11-12T03:03:33.036Z,27.37
2022-11-12T03:06:19.874Z,22.03
2022-11-12T03:09:06.342Z,25.47
2022-11-12T03:11:54.092Z,22.43
2022-11-12T03:14:40.706Z,21.13
2022-11-12T03:17:27.276Z,26.63
2022-11-12T03:20:13.732Z,22.73
2022-11-12T03:23:01.700Z,26.43
2022-11-12T03:25:48.089Z,27.90
2022-11-12T03:28:35.713Z,23.70
2022-11-12T03:31:22.133Z,25.47
2022-11-12T03:34:08.663Z,27.47
2022-11-12T03:36:54.911Z,26.20
2022-11-12T03:39:41.346Z,26.80
2022-11-12T03:42:27.942Z,27.77
2022-11-12T03:45:16.090Z,27.77
2022-11-12T03:48:02.463Z,28.90
2022-11-12T03:50:49.012Z,26.30
2022-11-12T03:53:35.336Z,26.90
2022-11-12T03:56:21.772Z,29.27
2022-11-12T03:59:08.158Z,28.63
2022-11-12T04:01:55.842Z,34.57
2022-11-12T04:04:59.808Z,28.43
2022-11-12T04:08:03.859Z,29.80
2022-11-12T04:10:51.118Z,26.17
2022-11-12T04:13:38.542Z,28.07
2022-11-12T04:16:43.260Z,27.07
2022-11-12T04:19:47.674Z,22.80
2022-11-12T04:22:34.549Z,32.53
2022-11-12T04:25:50.036Z,29.33
2022-11-12T04:28:36.887Z,25.67
2022-11-12T04:31:22.363Z,28.60
2022-11-12T04:34:26.259Z,28.13
2022-11-12T04:37:14.584Z,27.07
2022-11-12T04:40:21.352Z,26.30
2022-11-12T04:43:28.033Z,28.27
2022-11-12T04:46:14.935Z,25.47
2022-11-12T04:49:01.401Z,25.70
2022-11-12T04:52:06.112Z,28.37
2022-11-12T04:54:54.324Z,31.10
2022-11-12T04:57:40.692Z,26.80
2022-11-12T05:00:27.765Z,28.33
2022-11-12T05:03:14.234Z,27.87
2022-11-12T05:06:03.092Z,26.23
2022-11-12T05:08:49.815Z,30.03
2022-11-12T05:11:37.640Z,32.40
2022-11-12T05:14:24.628Z,27.90
2022-11-12T05:17:11.118Z,30.53
2022-11-12T05:19:57.863Z,34.10
2022-11-12T05:22:59.161Z,31.23
2022-11-12T05:25:51.296Z,32.27
2022-11-12T05:28:38.898Z,29.03
2022-11-12T05:31:25.165Z,39.60
2022-11-12T05:34:12.017Z,34.60
2022-11-12T05:36:58.815Z,33.27
2022-11-12T05:39:45.228Z,31.37
2022-11-12T05:42:31.666Z,36.10
2022-11-12T05:45:19.373Z,38.47
2022-11-12T05:48:05.933Z,32.03
2022-11-12T05:51:11.868Z,33.00
2022-11-12T05:53:59.758Z,36.03
2022-11-12T05:56:46.888Z,37.30
2022-11-12T05:59:33.337Z,34.47
2022-11-12T06:02:21.302Z,34.17
2022-11-12T06:05:08.978Z,33.83
2022-11-12T06:07:55.731Z,34.87
2022-11-12T06:10:42.139Z,37.13
2022-11-12T06:13:29.046Z,31.67
2022-11-12T06:16:15.633Z,36.60
2022-11-12T06:19:04.912Z,34.10
2022-11-12T06:21:51.330Z,36.10
2022-11-12T06:24:38.274Z,35.83
2022-11-12T06:27:24.983Z,34.10
2022-11-12T06:30:12.268Z,35.83
2022-11-12T06:32:59.064Z,37.07
2022-11-12T06:35:46.891Z,36.90
2022-11-12T06:38:34.810Z,34.80
2022-11-12T06:41:21.233Z,32.70
2022-11-12T06:44:08.057Z,34.43
2022-11-12T06:46:54.681Z,32.20
2022-11-12T06:49:41.736Z,38.03
2022-11-12T06:52:29.941Z,33.80
2022-11-12T06:55:16.793Z,37.63
2022-11-12T06:58:03.304Z,36.53
2022-11-12T07:00:49.865Z,39.43
2022-11-12T07:03:36.531Z,37.53
2022-11-12T07:06:23.394Z,43.60
2022-11-12T07:09:11.861Z,43.77
2022-11-12T07:11:58.312Z,45.97
2022-11-12T07:14:44.865Z,39.53
2022-11-12T07:17:32.103Z,44.70
2022-11-12T07:20:18.868Z,43.37
2022-11-12T07:23:05.341Z,49.73
2022-11-12T07:25:58.780Z,55.47
2022-11-12T07:28:46.402Z,40.73
2022-11-12T07:31:32.725Z,43.33
2022-11-12T07:34:19.184Z,44.43
2022-11-12T07:37:05.803Z,48.93
2022-11-12T07:39:52.320Z,44.30
2022-11-12T07:42:40.226Z,49.83
2022-11-12T07:45:26.727Z,48.03
2022-11-12T07:48:13.222Z,48.20
2022-11-12T07:51:03.495Z,54.27
2022-11-12T07:53:56.267Z,57.47
2022-11-12T07:56:45.500Z,48.47
2022-11-12T07:59:33.300Z,48.57
2022-11-12T08:02:19.816Z,53.97
2022-11-12T08:05:13.599Z,53.57
2022-11-12T08:08:03.503Z,49.03
2022-11-12T08:10:54.591Z,51.93
2022-11-12T08:13:41.293Z,58.63
2022-11-12T08:16:29.277Z,57.60
2022-11-12T08:19:15.802Z,52.70
2022-11-12T08:22:02.231Z,51.13
2022-11-12T08:24:48.818Z,49.00
2022-11-12T08:27:35.686Z,48.70
2022-11-12T08:30:22.524Z,54.40
2022-11-12T08:33:10.456Z,49.23
2022-11-12T08:35:57.591Z,60.70
2022-11-12T08:38:44.902Z,55.73
2022-11-12T08:41:31.253Z,47.20
2022-11-12T08:44:17.660Z,48.20
2022-11-12T08:47:04.126Z,49.77
2022-11-12T08:49:51.923Z,54.40
2022-11-12T08:52:38.418Z,48.17
2022-11-12T08:55:24.874Z,49.23
2022-11-12T08:58:11.295Z,50.97
2022-11-12T09:01:04.344Z,49.50
2022-11-12T09:03:51.149Z,48.97
2022-11-12T09:06:38.982Z,52.90
2022-11-12T09:09:25.409Z,47.33
2022-11-12T09:12:19.643Z,51.13
2022-11-12T09:15:36.310Z,48.47
2022-11-12T09:18:16.821Z,46.40
2022-11-12T09:21:05.495Z,46.60
2022-11-12T09:23:53.565Z,46.10
2022-11-12T09:26:40.442Z,51.87
2022-11-12T09:29:26.742Z,49.83
2022-11-12T09:32:13.401Z,45.00
2022-11-12T09:34:59.917Z,48.20
2022-11-12T09:37:46.612Z,42.80
2022-11-12T09:40:46.176Z,49.97
2022-11-12T09:43:35.498Z,46.70
2022-11-12T09:46:37.392Z,46.90
2022-11-12T09:49:28.616Z,44.57
2022-11-12T09:52:20.150Z,42.70
2022-11-12T09:55:14.259Z,44.17
2022-11-12T09:58:02.574Z,41.53
2022-11-12T10:00:55.843Z,37.00
2022-11-12T10:03:50.116Z,40.60
2022-11-12T10:06:45.437Z,48.53
2022-11-12T10:09:38.830Z,40.37
2022-11-12T10:12:35.567Z,42.07
2022-11-12T10:16:01.951Z,36.53
2022-11-12T10:19:04.736Z,43.53
2022-11-12T10:21:59.093Z,40.63
2022-11-12T10:24:46.390Z,38.93
2022-11-12T10:27:38.610Z,39.50
2022-11-12T10:30:26.184Z,40.50
2022-11-12T10:33:15.977Z,43.80
2022-11-12T10:36:18.234Z,42.03
2022-11-12T10:39:05.100Z,42.10
2022-11-12T10:42:04.134Z,41.37
2022-11-12T10:44:51.916Z,42.27
2022-11-12T10:47:42.976Z,38.23
2022-11-12T10:50:36.068Z,38.83
2022-11-12T10:53:34.925Z,37.87
2022-11-12T10:56:28.293Z,38.33
2022-11-12T10:59:17.228Z,38.43
2022-11-12T11:02:04.097Z,35.03
2022-11-12T11:04:50.414Z,41.73
2022-11-12T11:07:38.104Z,40.13
2022-11-12T11:10:27.448Z,40.10
2022-11-12T11:13:21.509Z,44.17
2022-11-12T11:16:11.415Z,42.83
2022-11-12T11:19:01.012Z,37.67
2022-11-12T11:22:04.415Z,40.93
2022-11-12T11:25:08.567Z,36.90
2022-11-12T11:28:05.803Z,38.63
2022-11-12T11:30:59.900Z,36.77
2022-11-12T11:33:53.950Z,35.93
2022-11-12T11:36:45.128Z,29.43
2022-11-12T11:39:42.718Z,37.50
2022-11-12T11:42:57.035Z,34.33
2022-11-12T11:46:07.056Z,32.57
2022-11-12T11:49:09.195Z,30.90
2022-11-12T11:52:03.327Z,30.70
2022-11-12T11:55:07.728Z,34.80
2022-11-12T11:58:07.142Z,28.17
2022-11-12T12:01:01.888Z,32.93
2022-11-12T12:04:07.895Z,31.67
2022-11-12T12:07:09.416Z,26.77
2022-11-12T12:10:07.865Z,30.40
2022-11-12T12:13:07.695Z,30.43
2022-11-12T12:16:17.283Z,28.53
2022-11-12T12:19:12.824Z,28.00
2022-11-12T12:22:02.274Z,31.80
2022-11-12T12:24:54.132Z,27.73
2022-11-12T12:27:51.724Z,35.40
2022-11-12T12:30:45.007Z,28.87
2022-11-12T12:33:37.209Z,29.23
2022-11-12T12:36:28.031Z,29.87
2022-11-12T12:39:18.605Z,29.07
2022-11-12T12:42:15.702Z,29.07
2022-11-12T12:45:12.354Z,29.90
2022-11-12T12:48:02.204Z,31.80
2022-11-12T12:50:50.844Z,31.03
2022-11-12T12:53:37.623Z,27.53
2022-11-12T12:56:44.404Z,28.73
2022-11-12T12:59:31.815Z,25.93
2022-11-12T13:02:22.522Z,29.00
2022-11-12T13:05:25.258Z,25.83
2022-11-12T13:08:15.077Z,26.30
2022-11-12T13:11:01.364Z,28.27
2022-11-12T13:13:47.943Z,31.13
2022-11-12T13:16:58.591Z,30.53
2022-11-12T13:20:31.943Z,29.43
2022-11-12T13:24:05.565Z,34.00
2022-11-12T13:26:56.996Z,25.93
2022-11-12T13:29:45.904Z,24.83
2022-11-12T13:32:38.337Z,24.87
2022-11-12T13:35:35.036Z,29.40
2022-11-12T13:38:21.731Z,23.97
2022-11-12T13:41:15.983Z,26.87
2022-11-12T13:44:07.136Z,25.57
2022-11-12T13:46:55.940Z,31.43
2022-11-12T13:49:43.785Z,26.63
2022-11-12T13:52:32.201Z,28.37
2022-11-12T13:55:20.789Z,25.33
2022-11-12T13:58:19.389Z,32.07
2022-11-12T14:01:07.951Z,23.47
2022-11-12T14:03:54.713Z,27.20
2022-11-12T14:06:45.606Z,23.60
2022-11-12T14:10:01.204Z,23.23
2022-11-12T14:13:12.724Z,22.93
2022-11-12T14:16:15.590Z,24.70
2022-11-12T14:19:44.662Z,23.53
2022-11-12T14:22:39.497Z,26.30
2022-11-12T14:25:28.791Z,36.80
2022-11-12T14:28:28.524Z,37.23
2022-11-12T14:31:16.562Z,33.13
2022-11-12T14:34:22.958Z,31.20
2022-11-12T14:37:33.497Z,30.57
2022-11-12T14:40:21.111Z,35.27
2022-11-12T14:43:24.841Z,30.40
2022-11-12T14:46:24.369Z,30.27
2022-11-12T14:49:18.862Z,32.60
2022-11-12T14:52:12.642Z,36.97
2022-11-12T14:55:01.869Z,32.27
2022-11-12T14:57:49.018Z,40.30
2022-11-12T15:00:42.880Z,34.60
2022-11-12T15:03:33.666Z,51.47
2022-11-12T15:06:29.162Z,36.93
2022-11-12T15:09:18.749Z,41.83
2022-11-12T15:12:08.360Z,40.83
2022-11-12T15:15:05.018Z,37.17
2022-11-12T15:17:59.767Z,49.47
2022-11-12T15:20:47.002Z,47.53
2022-11-12T15:23:33.361Z,42.40
2022-11-12T15:26:27.346Z,35.37
2022-11-12T15:29:26.027Z,41.20
2022-11-12T15:32:34.415Z,38.93
2022-11-12T15:35:39.254Z,40.33
2022-11-12T15:38:31.595Z,36.27
2022-11-12T15:41:27.487Z,36.00
2022-11-12T15:44:14.710Z,44.83
2022-11-12T15:47:01.701Z,40.53
2022-11-12T15:49:51.914Z,40.53
2022-11-12T15:52:40.092Z,39.57
2022-11-12T15:55:26.661Z,40.40
2022-11-12T15:58:18.336Z,37.20
2022-11-12T16:01:05.601Z,39.73
2022-11-12T16:03:52.602Z,37.73
2022-11-12T16:06:39.024Z,32.03
2022-11-12T16:09:27.344Z,38.53
2022-11-12T16:12:14.888Z,37.57
2022-11-12T16:15:02.595Z,38.60
2022-11-12T16:17:49.927Z,39.70
2022-11-12T16:20:37.209Z,33.93
2022-11-12T16:23:25.149Z,33.13
2022-11-12T16:26:19.194Z,36.10
2022-11-12T16:29:12.838Z,31.87
2022-11-12T16:31:59.428Z,35.90
2022-11-12T16:34:45.870Z,34.27
2022-11-12T16:37:33.214Z,28.93
2022-11-12T16:40:22.232Z,40.40
2022-11-12T16:43:10.348Z,47.37
2022-11-12T16:45:56.921Z,37.87
2022-11-12T16:48:43.517Z,43.87
2022-11-12T16:51:30.090Z,36.80
2022-11-12T16:54:16.914Z,37.67
2022-11-12T16:57:03.463Z,38.73
2022-11-12T16:59:51.413Z,41.33
2022-11-12T17:02:43.655Z,47.37
2022-11-12T17:05:32.064Z,40.83
2022-11-12T17:08:18.442Z,41.73
2022-11-12T17:11:09.686Z,37.13
2022-11-12T17:13:56.419Z,40.27
2022-11-12T17:16:45.001Z,45.53
2022-11-12T17:19:31.361Z,39.67
2022-11-12T17:22:20.222Z,38.13
2022-11-12T17:25:08.230Z,37.63
2022-11-12T17:27:55.023Z,36.73
2022-11-12T17:30:41.552Z,39.37
2022-11-12T17:33:29.620Z,40.80
2022-11-12T17:36:18.421Z,40.80
2022-11-12T17:39:05.316Z,41.43
2022-11-12T17:41:52.102Z,30.40
2022-11-12T17:44:38.624Z,36.63
2022-11-12T17:47:24.906Z,35.10
2022-11-12T17:50:12.767Z,37.40
2022-11-12T17:52:59.162Z,33.30
2022-11-12T17:55:45.804Z,39.27
2022-11-12T17:58:32.612Z,35.03
2022-11-12T18:01:21.583Z,36.77
2022-11-12T18:04:10.834Z,35.50
2022-11-12T18:06:59.002Z,34.90
2022-11-12T18:09:45.437Z,33.50
2022-11-12T18:12:31.878Z,39.03
2022-11-12T18:15:18.400Z,44.30
2022-11-12T18:18:05.417Z,56.80
2022-11-12T18:20:52.042Z,59.07
2022-11-12T18:23:40.569Z,53.00
2022-11-12T18:26:27.162Z,48.23
2022-11-12T18:29:13.628Z,39.00
2022-11-12T18:32:00.118Z,44.13
2022-11-12T18:34:46.675Z,46.87
2022-11-12T18:37:33.185Z,41.70
2022-11-12T18:40:21.421Z,49.90
2022-11-12T18:43:08.023Z,47.67
2022-11-12T18:45:59.150Z,45.20
2022-11-12T18:48:45.747Z,41.90
2022-11-12T18:51:32.690Z,44.47
2022-11-12T18:54:19.168Z,47.13
2022-11-12T18:57:07.109Z,40.37
2022-11-12T18:59:55.050Z,40.57
2022-11-12T19:02:41.925Z,35.93
2022-11-12T19:05:28.406Z,39.73
2022-11-12T19:08:14.748Z,41.80
2022-11-12T19:11:02.440Z,41.97
2022-11-12T19:13:53.761Z,38.43
2022-11-12T19:16:42.947Z,39.60
2022-11-12T19:19:29.349Z,40.03
2022-11-12T19:22:15.956Z,32.97
2022-11-12T19:25:02.901Z,42.20
2022-11-12T19:27:50.056Z,44.20
2022-11-12T19:30:38.067Z,42.13
2022-11-12T19:33:25.018Z,38.30
2022-11-12T19:36:15.689Z,43.40
2022-11-12T19:39:03.054Z,42.17
2022-11-12T19:41:49.358Z,38.80
2022-11-12T19:44:35.989Z,42.03
2022-11-12T19:47:23.911Z,40.90
2022-11-12T19:50:10.637Z,39.07
2022-11-12T19:52:57.429Z,38.40
2022-11-12T19:55:43.987Z,40.63
2022-11-12T19:58:31.760Z,39.43
2022-11-12T20:01:20.049Z,48.77
2022-11-12T20:04:08.213Z,39.53
2022-11-12T20:06:54.703Z,44.83
2022-11-12T20:09:41.115Z,45.17
2022-11-12T20:12:29.895Z,46.07
2022-11-12T20:15:16.640Z,46.67
2022-11-12T20:18:03.055Z,52.93
2022-11-12T20:20:53.240Z,56.50
2022-11-12T20:23:42.920Z,55.63
2022-11-12T20:26:29.621Z,73.57
2022-11-12T20:29:16.130Z,60.33
2022-11-12T20:32:02.962Z,71.03
2022-11-12T20:34:49.699Z,75.87
2022-11-12T20:37:37.928Z,75.37
2022-11-12T20:40:24.655Z,78.70
2022-11-12T20:43:11.111Z,70.43
2022-11-12T20:45:57.800Z,76.80
2022-11-12T20:48:44.454Z,64.67
2022-11-12T20:51:30.938Z,64.87
2022-11-12T20:54:18.833Z,66.50
2022-11-12T20:57:05.328Z,61.07
2022-11-12T20:59:51.826Z,63.50
2022-11-12T21:02:38.183Z,70.37
2022-11-12T21:05:25.413Z,66.00
2022-11-12T21:08:12.189Z,67.60
2022-11-12T21:11:01.828Z,64.63
2022-11-12T21:13:48.403Z,63.17
2022-11-12T21:16:34.927Z,58.30
2022-11-12T21:19:22.460Z,64.20
2022-11-12T21:22:08.915Z,67.27
2022-11-12T21:24:55.504Z,67.43
2022-11-12T21:27:43.194Z,63.73
2022-11-12T21:30:29.766Z,65.03
2022-11-12T21:33:16.114Z,67.80
2022-11-12T21:36:02.978Z,64.90
2022-11-12T21:38:49.943Z,62.97
2022-11-12T21:41:36.551Z,70.20
2022-11-12T21:44:24.697Z,70.87
2022-11-12T21:47:11.628Z,69.87
2022-11-12T21:49:58.499Z,74.60
2022-11-12T21:52:45.189Z,79.77
2022-11-12T21:55:31.666Z,80.10
2022-11-12T21:58:18.098Z,66.80
2022-11-12T22:01:10.964Z,70.87
2022-11-12T22:03:59.480Z,77.60
2022-11-12T22:06:46.505Z,80.40
2022-11-12T22:09:33.906Z,85.03
2022-11-12T22:12:20.336Z,82.13
2022-11-12T22:15:08.185Z,80.60
2022-11-12T22:17:56.096Z,76.73
2022-11-12T22:20:42.473Z,83.27
2022-11-12T22:23:29.111Z,75.43
2022-11-12T22:26:17.671Z,77.70
2022-11-12T22:29:05.140Z,79.23
2022-11-12T22:31:51.500Z,76.30
2022-11-12T22:34:39.314Z,71.13
2022-11-12T22:37:25.924Z,72.33
2022-11-12T22:40:13.781Z,73.20
2022-11-12T22:43:00.289Z,74.37
2022-11-12T22:45:46.658Z,70.43
2022-11-12T22:48:33.317Z,73.07
2022-11-12T22:51:23.959Z,84.53
2022-11-12T22:54:15.566Z,74.43
2022-11-12T22:57:02.653Z,77.63
2022-11-12T22:59:49.211Z,81.47
2022-11-12T23:02:36.212Z,78.40
2022-11-12T23:05:22.816Z,71.30
2022-11-12T23:08:10.750Z,78.13
2022-11-12T23:10:57.455Z,68.73
2022-11-12T23:13:44.381Z,68.37
2022-11-12T23:16:31.677Z,72.03
2022-11-12T23:19:18.586Z,72.07
2022-11-12T23:22:07.891Z,76.90
2022-11-12T23:24:56.131Z,72.63
2022-11-12T23:27:42.418Z,71.80
2022-11-12T23:30:29.092Z,70.83
2022-11-12T23:33:15.778Z,72.50
2022-11-12T23:36:06.429Z,69.27
2022-11-12T23:38:52.932Z,63.20
2022-11-12T23:41:41.129Z,67.27
2022-11-12T23:44:27.697Z,64.27
2022-11-12T23:47:14.128Z,70.50
2022-11-12T23:50:00.559Z,65.37
2022-11-12T23:52:47.049Z,62.87
2022-11-12T23:55:38.276Z,68.13
2022-11-12T23:58:27.003Z,66.53
